createdAt,value
2022-08-04T00:00:05.743Z,48.25
2022-08-04T00:02:50.722Z,48.02
2022-08-04T00:05:29.409Z,47.81
2022-08-04T00:08:35.108Z,47.97
2022-08-04T00:11:02.472Z,47.91
2022-08-04T00:13:32.240Z,48.38
2022-08-04T00:16:02.976Z,48.64
2022-08-04T00:18:41.677Z,49.24
2022-08-04T00:21:14.859Z,49.42
2022-08-04T00:24:11.701Z,49.95
2022-08-04T00:26:31.264Z,49.92
2022-08-04T00:28:58.008Z,49.48
2022-08-04T00:31:53.655Z,49.53
2022-08-04T00:34:13.874Z,49.04
2022-08-04T00:36:44.092Z,49.12
2022-08-04T00:39:16.089Z,48.78
2022-08-04T00:41:56.105Z,49.09
2022-08-04T00:44:30.583Z,49.09
2022-08-04T00:47:24.303Z,49.40
2022-08-04T00:50:00.164Z,49.34
2022-08-04T00:52:35.641Z,49.18
2022-08-04T00:55:26.971Z,49.65
2022-08-04T00:58:21.246Z,49.12
2022-08-04T01:01:02.871Z,49.45
2022-08-04T01:03:49.462Z,49.51
2022-08-04T01:06:35.153Z,49.76
2022-08-04T01:09:40.936Z,50.13
2022-08-04T01:12:26.083Z,50.72
2022-08-04T01:15:17.811Z,51.23
2022-08-04T01:18:37.173Z,50.99
2022-08-04T01:21:21.826Z,51.59
2022-08-04T01:24:14.624Z,51.50
2022-08-04T01:27:20.767Z,51.32
2022-08-04T01:29:57.140Z,51.78
2022-08-04T01:32:26.581Z,51.97
2022-08-04T01:35:46.888Z,51.61
2022-08-04T01:38:21.445Z,51.61
2022-08-04T01:40:53.278Z,51.25
2022-08-04T01:43:21.283Z,50.95
2022-08-04T01:45:57.569Z,51.26
2022-08-04T01:48:25.602Z,50.72
2022-08-04T01:51:12.382Z,51.20
2022-08-04T01:53:41.561Z,51.00
2022-08-04T01:56:10.364Z,50.80
2022-08-04T01:58:38.642Z,51.02
2022-08-04T02:01:12.183Z,51.02
2022-08-04T02:04:19.481Z,51.43
2022-08-04T02:06:34.827Z,52.07
2022-08-04T02:09:15.774Z,51.98
2022-08-04T02:11:49.700Z,52.17
2022-08-04T02:14:41.460Z,52.15
2022-08-04T02:17:31.577Z,52.23
2022-08-04T02:20:07.381Z,51.84
2022-08-04T02:22:38.722Z,51.88
2022-08-04T02:25:09.209Z,52.18
2022-08-04T02:28:13.435Z,51.78
2022-08-04T02:31:07.965Z,52.48
2022-08-04T02:33:38.408Z,52.37
2022-08-04T02:36:09.355Z,52.56
2022-08-04T02:38:41.917Z,52.15
2022-08-04T02:41:09.860Z,52.15
2022-08-04T02:43:51.018Z,52.41
2022-08-04T02:46:20.356Z,52.33
2022-08-04T02:48:48.808Z,52.68
2022-08-04T02:51:17.862Z,52.79
2022-08-04T02:53:46.242Z,52.65
2022-08-04T02:56:17.929Z,52.88
2022-08-04T02:58:49.296Z,53.54
2022-08-04T03:01:15.841Z,54.61
2022-08-04T03:03:59.525Z,54.08
2022-08-04T03:06:44.394Z,53.96
2022-08-04T03:09:50.183Z,53.63
2022-08-04T03:12:19.295Z,53.85
2022-08-04T03:15:20.042Z,53.84
2022-08-04T03:18:23.758Z,54.22
2022-08-04T03:21:24.389Z,54.36
2022-08-04T03:24:13.464Z,54.61
2022-08-04T03:27:11.153Z,54.52
2022-08-04T03:29:55.273Z,54.53
2022-08-04T03:32:59.395Z,54.19
2022-08-04T03:36:10.902Z,53.97
2022-08-04T03:39:14.800Z,54.47
2022-08-04T03:42:08.064Z,54.32
2022-08-04T03:45:23.148Z,54.26
2022-08-04T03:48:11.682Z,54.83
2022-08-04T03:51:36.318Z,54.59
2022-08-04T03:54:11.931Z,54.93
2022-08-04T03:57:09.452Z,55.41
2022-08-04T04:00:09.111Z,55.99
2022-08-04T04:03:00.848Z,56.12
2022-08-04T04:05:56.050Z,55.81
2022-08-04T04:08:48.064Z,56.37
2022-08-04T04:11:25.079Z,56.52
2022-08-04T04:14:18.066Z,56.55
2022-08-04T04:17:15.024Z,56.31
2022-08-04T04:19:58.369Z,56.44
2022-08-04T04:23:03.011Z,56.20
2022-08-04T04:25:48.173Z,56.37
2022-08-04T04:28:45.137Z,56.45
2022-08-04T04:31:22.011Z,56.44
2022-08-04T04:34:26.578Z,56.52
2022-08-04T04:37:08.169Z,56.98
2022-08-04T04:39:49.746Z,57.00
2022-08-04T04:42:28.402Z,57.13
2022-08-04T04:44:57.780Z,56.75
2022-08-04T04:48:07.171Z,56.63
2022-08-04T04:50:53.303Z,56.14
2022-08-04T04:53:42.370Z,57.04
2022-08-04T04:56:17.727Z,57.03
2022-08-04T04:58:44.199Z,57.25
2022-08-04T05:01:28.925Z,56.92
2022-08-04T05:04:21.579Z,56.93
2022-08-04T05:06:54.239Z,56.51
2022-08-04T05:09:42.703Z,56.68
2022-08-04T05:14:32.794Z,56.92
2022-08-04T05:15:12.490Z,56.63
2022-08-04T05:17:41.901Z,56.81
2022-08-04T05:20:13.044Z,56.97
2022-08-04T05:23:01.032Z,57.48
2022-08-04T05:25:59.520Z,57.50
2022-08-04T05:28:38.085Z,57.18
2022-08-04T05:31:11.957Z,56.69
2022-08-04T05:33:43.210Z,56.25
2022-08-04T05:36:29.446Z,56.38
2022-08-04T05:39:07.277Z,56.22
2022-08-04T05:41:45.555Z,55.18
2022-08-04T05:44:15.075Z,54.75
2022-08-04T05:46:43.656Z,55.28
2022-08-04T05:49:12.718Z,55.05
2022-08-04T05:51:47.760Z,53.58
2022-08-04T05:54:15.348Z,52.34
2022-08-04T05:56:42.967Z,52.14
2022-08-04T05:59:12.620Z,52.35
2022-08-04T06:01:56.439Z,51.11
2022-08-04T06:04:32.166Z,51.04
2022-08-04T06:06:58.723Z,51.43
2022-08-04T06:09:25.272Z,50.59
2022-08-04T06:12:01.897Z,50.45
2022-08-04T06:14:37.591Z,49.83
2022-08-04T06:18:32.067Z,49.52
2022-08-04T06:20:03.138Z,49.10
2022-08-04T06:22:45.179Z,48.58
2022-08-04T06:25:16.702Z,48.50
2022-08-04T06:27:44.379Z,48.64
2022-08-04T06:30:14.399Z,47.81
2022-08-04T06:33:03.562Z,48.50
2022-08-04T06:35:31.842Z,47.98
2022-08-04T06:38:01.221Z,48.25
2022-08-04T06:40:33.290Z,48.29
2022-08-04T06:43:07.815Z,47.92
2022-08-04T06:45:37.842Z,48.06
2022-08-04T06:48:06.677Z,47.79
2022-08-04T06:51:24.987Z,47.53
2022-08-04T06:53:24.169Z,47.43
2022-08-04T06:55:51.789Z,47.32
2022-08-04T06:58:21.734Z,47.28
2022-08-04T07:00:49.482Z,47.88
2022-08-04T07:03:18.091Z,48.05
2022-08-04T07:05:47.795Z,47.67
2022-08-04T07:08:14.678Z,47.36
2022-08-04T07:10:41.545Z,46.38
2022-08-04T07:13:09.568Z,46.64
2022-08-04T07:15:38.754Z,47.00
2022-08-04T07:18:05.360Z,46.29
2022-08-04T07:20:35.289Z,46.20
2022-08-04T07:23:05.813Z,45.58
2022-08-04T07:26:01.124Z,45.19
2022-08-04T07:28:24.230Z,45.36
2022-08-04T07:30:50.969Z,45.60
2022-08-04T07:33:18.414Z,45.82
2022-08-04T07:36:09.224Z,45.42
2022-08-04T07:38:50.875Z,45.60
2022-08-04T07:41:38.278Z,45.60
2022-08-04T07:44:05.545Z,44.84
2022-08-04T07:46:32.290Z,44.65
2022-08-04T07:49:01.151Z,44.22
2022-08-04T07:51:28.918Z,44.32
2022-08-04T07:53:56.791Z,44.20
2022-08-04T07:56:24.535Z,44.19
2022-08-04T07:58:50.977Z,43.86
2022-08-04T08:01:19.341Z,44.07
2022-08-04T08:03:46.506Z,41.95
2022-08-04T08:06:31.018Z,40.59
2022-08-04T08:09:01.967Z,40.29
2022-08-04T08:12:35.823Z,40.02
2022-08-04T08:14:28.232Z,40.58
2022-08-04T08:16:54.734Z,40.90
2022-08-04T08:19:21.156Z,40.62
2022-08-04T08:21:59.588Z,41.67
2022-08-04T08:24:28.268Z,40.20
2022-08-04T08:26:55.891Z,40.29
2022-08-04T08:29:22.692Z,40.07
2022-08-04T08:31:55.554Z,40.37
2022-08-04T08:34:30.523Z,39.25
2022-08-04T08:37:19.996Z,38.82
2022-08-04T08:39:59.459Z,38.68
2022-08-04T08:42:46.674Z,38.85
2022-08-04T08:45:32.041Z,38.56
2022-08-04T08:48:36.225Z,39.41
2022-08-04T08:51:17.177Z,39.10
2022-08-04T08:54:05.541Z,38.31
2022-08-04T08:57:00.793Z,37.99
2022-08-04T09:00:02.808Z,37.96
2022-08-04T09:03:04.234Z,37.83
2022-08-04T09:05:42.899Z,37.88
2022-08-04T09:08:22.479Z,37.94
2022-08-04T09:10:54.026Z,38.11
2022-08-04T09:13:30.545Z,38.47
2022-08-04T09:16:16.362Z,37.93
2022-08-04T09:19:02.518Z,38.15
2022-08-04T09:21:33.849Z,37.55
2022-08-04T09:24:35.722Z,36.71
2022-08-04T09:27:03.506Z,36.68
2022-08-04T09:29:35.957Z,36.69
2022-08-04T09:32:29.782Z,36.43
2022-08-04T09:35:19.168Z,36.78
2022-08-04T09:37:59.303Z,36.83
2022-08-04T09:40:53.436Z,36.41
2022-08-04T09:43:59.022Z,36.23
2022-08-04T09:46:43.514Z,36.43
2022-08-04T09:49:18.277Z,36.80
2022-08-04T09:51:57.261Z,37.09
2022-08-04T09:54:51.991Z,36.61
2022-08-04T09:57:47.530Z,36.81
2022-08-04T10:00:16.962Z,36.97
2022-08-04T10:02:52.181Z,35.98
2022-08-04T10:05:22.956Z,35.55
2022-08-04T10:08:24.510Z,36.19
2022-08-04T10:11:03.851Z,36.97
2022-08-04T10:13:51.883Z,37.14
2022-08-04T10:16:38.287Z,36.38
2022-08-04T10:19:28.874Z,36.26
2022-08-04T10:22:28.377Z,36.47
2022-08-04T10:26:03.628Z,35.81
2022-08-04T10:28:15.498Z,35.81
2022-08-04T10:30:49.185Z,35.46
2022-08-04T10:33:25.746Z,35.00
2022-08-04T10:36:00.152Z,34.83
2022-08-04T10:38:33.486Z,34.60
2022-08-04T10:41:25.127Z,34.21
2022-08-04T10:44:12.354Z,34.25
2022-08-04T10:46:49.890Z,34.16
2022-08-04T10:49:24.081Z,34.06
2022-08-04T10:51:59.788Z,34.49
2022-08-04T10:54:43.805Z,34.46
2022-08-04T10:57:41.433Z,34.73
2022-08-04T11:00:10.447Z,34.70
2022-08-04T11:02:49.192Z,35.09
2022-08-04T11:05:27.908Z,34.89
2022-08-04T11:08:01.539Z,35.84
2022-08-04T11:10:33.116Z,35.70
2022-08-04T11:13:07.945Z,35.25
2022-08-04T11:15:57.955Z,35.65
2022-08-04T11:18:54.232Z,36.40
2022-08-04T11:21:28.283Z,37.20
2022-08-04T11:24:11.667Z,37.29
2022-08-04T11:26:48.179Z,37.78
2022-08-04T11:29:28.530Z,37.31
2022-08-04T11:31:59.997Z,38.00
2022-08-04T11:34:27.701Z,37.04
2022-08-04T11:37:06.162Z,37.06
2022-08-04T11:39:43.901Z,37.22
2022-08-04T11:42:10.364Z,37.94
2022-08-04T11:44:55.115Z,38.55
2022-08-04T11:47:24.599Z,38.31
2022-08-04T11:50:05.450Z,38.51
2022-08-04T11:52:34.260Z,38.94
2022-08-04T11:55:07.055Z,39.93
2022-08-04T11:57:36.460Z,40.15
2022-08-04T12:00:07.632Z,40.06
2022-08-04T12:02:47.782Z,39.42
2022-08-04T12:05:23.269Z,39.66
2022-08-04T12:08:24.194Z,38.79
2022-08-04T12:11:08.221Z,39.39
2022-08-04T12:13:41.966Z,38.92
2022-08-04T12:16:11.279Z,38.48
2022-08-04T12:18:40.440Z,37.91
2022-08-04T12:21:53.082Z,38.23
2022-08-04T12:24:27.711Z,38.38
2022-08-04T12:26:58.498Z,38.50
2022-08-04T12:29:30.429Z,38.10
2022-08-04T12:32:32.979Z,38.26
2022-08-04T12:35:36.994Z,38.24
2022-08-04T12:38:06.610Z,38.94
2022-08-04T12:40:46.389Z,38.81
2022-08-04T12:43:24.637Z,38.84
2022-08-04T12:45:54.862Z,38.76
2022-08-04T12:48:26.544Z,37.86
2022-08-04T12:50:55.785Z,39.04
2022-08-04T12:53:32.017Z,39.26
2022-08-04T12:56:01.949Z,39.79
2022-08-04T12:58:43.042Z,39.96
2022-08-04T13:02:06.952Z,39.90
2022-08-04T13:04:34.296Z,39.72
2022-08-04T13:07:18.497Z,39.90
2022-08-04T13:09:46.329Z,39.89
2022-08-04T13:12:14.297Z,39.90
2022-08-04T13:14:45.661Z,39.98
2022-08-04T13:17:12.538Z,39.89
2022-08-04T13:19:45.497Z,39.67
2022-08-04T13:22:16.171Z,39.11
2022-08-04T13:24:56.812Z,39.65
2022-08-04T13:27:43.470Z,39.49
2022-08-04T13:30:12.078Z,39.40
2022-08-04T13:32:55.441Z,40.58
2022-08-04T13:35:22.672Z,40.45
2022-08-04T13:37:50.219Z,40.42
2022-08-04T13:40:21.385Z,41.32
2022-08-04T13:42:51.345Z,40.72
2022-08-04T13:45:22.864Z,40.91
2022-08-04T13:47:51.709Z,40.68
2022-08-04T13:50:27.466Z,40.76
2022-08-04T13:52:55.883Z,40.84
2022-08-04T13:55:36.707Z,41.14
2022-08-04T13:58:09.670Z,41.13
2022-08-04T14:00:44.083Z,41.11
2022-08-04T14:03:19.051Z,40.98
2022-08-04T14:06:15.920Z,41.21
2022-08-04T14:08:58.053Z,41.97
2022-08-04T14:12:09.085Z,42.28
2022-08-04T14:14:29.678Z,42.20
2022-08-04T14:17:05.690Z,42.41
2022-08-04T14:19:50.605Z,42.49
2022-08-04T14:22:26.143Z,42.70
2022-08-04T14:25:16.283Z,42.50
2022-08-04T14:27:55.961Z,42.06
2022-08-04T14:30:24.350Z,42.05
2022-08-04T14:34:01.035Z,42.08
2022-08-04T14:35:58.709Z,42.82
2022-08-04T14:38:42.760Z,43.03
2022-08-04T14:41:10.056Z,42.52
2022-08-04T14:43:56.228Z,42.21
2022-08-04T14:46:24.335Z,42.27
2022-08-04T14:49:11.880Z,42.34
2022-08-04T14:51:43.603Z,42.17
2022-08-04T14:54:17.727Z,41.89
2022-08-04T14:56:54.376Z,41.98
2022-08-04T14:59:21.561Z,41.74
2022-08-04T15:02:01.291Z,41.93
2022-08-04T15:04:31.257Z,41.78
2022-08-04T15:06:57.819Z,42.18
2022-08-04T15:09:24.623Z,42.02
2022-08-04T15:11:51.033Z,42.33
2022-08-04T15:14:37.811Z,42.35
2022-08-04T15:17:11.457Z,42.80
2022-08-04T15:19:39.513Z,42.95
2022-08-04T15:22:07.221Z,43.65
2022-08-04T15:24:43.975Z,44.09
2022-08-04T15:27:13.467Z,44.44
2022-08-04T15:30:00.059Z,44.45
2022-08-04T15:32:31.874Z,44.43
2022-08-04T15:35:12.979Z,45.24
2022-08-04T15:37:57.823Z,44.97
2022-08-04T15:40:33.630Z,44.77
2022-08-04T15:43:11.107Z,45.18
2022-08-04T15:46:43.396Z,45.65
2022-08-04T15:48:41.750Z,45.86
2022-08-04T15:51:14.561Z,45.93
2022-08-04T15:54:02.322Z,45.85
2022-08-04T15:56:28.352Z,45.78
2022-08-04T15:58:56.982Z,46.10
2022-08-04T16:01:23.759Z,45.48
2022-08-04T16:03:59.052Z,45.23
2022-08-04T16:06:29.751Z,45.30
2022-08-04T16:09:04.742Z,44.58
2022-08-04T16:11:37.005Z,44.59
2022-08-04T16:14:03.811Z,44.18
2022-08-04T16:16:43.690Z,43.90
2022-08-04T16:19:48.919Z,44.24
2022-08-04T16:22:40.256Z,42.73
2022-08-04T16:25:08.638Z,43.01
2022-08-04T16:27:43.931Z,43.14
2022-08-04T16:30:14.936Z,42.11
2022-08-04T16:32:43.766Z,41.91
2022-08-04T16:35:28.539Z,41.60
2022-08-04T16:38:17.880Z,41.78
2022-08-04T16:40:44.608Z,41.16
2022-08-04T16:43:14.172Z,41.57
2022-08-04T16:45:43.128Z,41.84
2022-08-04T16:48:10.787Z,42.25
2022-08-04T16:50:52.181Z,42.63
2022-08-04T16:53:52.288Z,42.75
2022-08-04T16:56:10.400Z,42.40
2022-08-04T16:58:37.141Z,43.11
2022-08-04T17:01:22.005Z,43.14
2022-08-04T17:04:04.694Z,43.21
2022-08-04T17:06:39.400Z,43.29
2022-08-04T17:09:17.152Z,43.68
2022-08-04T17:11:45.528Z,44.20
2022-08-04T17:14:13.318Z,43.88
2022-08-04T17:16:42.211Z,43.74
2022-08-04T17:19:24.023Z,44.16
2022-08-04T17:22:00.403Z,44.73
2022-08-04T17:24:29.183Z,44.53
2022-08-04T17:26:58.039Z,44.97
2022-08-04T17:29:43.910Z,45.04
2022-08-04T17:32:21.187Z,45.06
2022-08-04T17:34:49.885Z,45.12
2022-08-04T17:37:38.550Z,45.21
2022-08-04T17:40:10.836Z,45.10
2022-08-04T17:42:38.409Z,45.20
2022-08-04T17:47:55.659Z,45.73
2022-08-04T17:50:31.266Z,45.71
2022-08-04T17:53:00.508Z,45.64
2022-08-04T17:55:49.272Z,45.28
2022-08-04T17:58:22.155Z,45.42
2022-08-04T18:01:24.184Z,44.83
2022-08-04T18:03:53.726Z,45.19
2022-08-04T18:06:23.153Z,45.37
2022-08-04T18:08:59.486Z,44.75
2022-08-04T18:11:52.165Z,45.28
2022-08-04T18:14:18.648Z,44.94
2022-08-04T18:16:55.773Z,45.45
2022-08-04T18:19:22.458Z,44.72
2022-08-04T18:21:59.304Z,45.02
2022-08-04T18:24:35.934Z,44.58
2022-08-04T18:27:19.508Z,44.57
2022-08-04T18:30:15.205Z,44.90
2022-08-04T18:32:33.477Z,44.76
2022-08-04T18:35:05.596Z,45.00
2022-08-04T18:38:05.968Z,44.59
2022-08-04T18:40:30.018Z,44.74
2022-08-04T18:43:01.979Z,44.47
2022-08-04T18:45:33.783Z,44.53
2022-08-04T18:48:01.313Z,44.77
2022-08-04T18:50:59.325Z,44.92
2022-08-04T18:53:15.875Z,44.99
2022-08-04T18:55:55.563Z,45.28
2022-08-04T19:01:13.480Z,45.66
2022-08-04T19:03:41.405Z,45.58
2022-08-04T19:06:11.485Z,45.64
2022-08-04T19:08:45.207Z,45.66
2022-08-04T19:11:37.315Z,45.79
2022-08-04T19:14:04.212Z,45.55
2022-08-04T19:16:32.145Z,45.54
2022-08-04T19:19:00.635Z,45.79
2022-08-04T19:21:59.617Z,46.23
2022-08-04T19:24:32.030Z,46.52
2022-08-04T19:27:02.283Z,46.62
2022-08-04T19:29:37.219Z,46.36
2022-08-04T19:32:04.933Z,46.33
2022-08-04T19:34:42.540Z,46.44
2022-08-04T19:37:19.904Z,46.60
2022-08-04T19:40:00.302Z,46.65
2022-08-04T19:42:26.808Z,46.39
2022-08-04T19:44:53.573Z,46.26
2022-08-04T19:48:16.952Z,46.45
2022-08-04T19:50:10.745Z,46.88
2022-08-04T19:52:38.018Z,46.97
2022-08-04T19:57:53.125Z,46.66
2022-08-04T20:00:33.659Z,47.14
2022-08-04T20:03:01.871Z,47.47
2022-08-04T20:08:18.468Z,47.67
2022-08-04T20:10:51.168Z,48.22
2022-08-04T20:13:18.249Z,48.44
2022-08-04T20:15:57.605Z,48.38
2022-08-04T20:18:34.946Z,48.63
2022-08-04T20:21:03.686Z,48.31
2022-08-04T20:23:48.413Z,49.18
2022-08-04T20:26:16.795Z,49.02
2022-08-04T20:31:31.727Z,49.03
2022-08-04T20:33:58.373Z,49.12
2022-08-04T20:36:25.437Z,49.05
2022-08-04T20:38:54.402Z,48.56
2022-08-04T20:41:22.202Z,48.59
2022-08-04T20:43:49.807Z,48.77
2022-08-04T20:46:28.679Z,48.93
2022-08-04T20:48:57.067Z,48.41
2022-08-04T20:51:31.782Z,48.38
2022-08-04T20:54:04.175Z,47.38
2022-08-04T20:56:50.683Z,47.53
2022-08-04T20:59:18.589Z,47.43
2022-08-04T21:01:45.290Z,47.09
2022-08-04T21:04:34.277Z,46.71
2022-08-04T21:07:03.223Z,46.87
2022-08-04T21:09:42.558Z,46.69
2022-08-04T21:12:27.187Z,46.47
2022-08-04T21:14:56.997Z,45.92
2022-08-04T21:17:56.839Z,45.45
2022-08-04T21:20:12.876Z,45.15
2022-08-04T21:22:40.209Z,45.82
2022-08-04T21:25:07.869Z,45.76
2022-08-04T21:27:42.902Z,45.98
2022-08-04T21:30:14.967Z,46.77
2022-08-04T21:32:51.469Z,48.22
2022-08-04T21:35:18.785Z,49.70
2022-08-04T21:37:57.984Z,51.03
2022-08-04T21:40:36.899Z,52.08
2022-08-04T21:43:07.612Z,53.05
2022-08-04T21:48:21.267Z,51.43
2022-08-04T21:50:50.496Z,52.65
2022-08-04T21:53:17.238Z,53.56
2022-08-04T21:56:04.848Z,54.17
2022-08-04T21:58:33.138Z,54.43
2022-08-04T22:00:59.618Z,56.25
2022-08-04T22:03:53.279Z,57.13
2022-08-04T22:06:17.321Z,56.67
2022-08-04T22:08:49.158Z,55.95
2022-08-04T22:14:27.367Z,57.76
2022-08-04T22:16:56.625Z,57.52
2022-08-04T22:19:39.690Z,57.62
2022-08-04T22:22:07.501Z,56.83
2022-08-04T22:24:36.202Z,55.95
2022-08-04T22:27:04.298Z,55.46
2022-08-04T22:29:39.217Z,54.99
2022-08-04T22:32:11.235Z,55.85
2022-08-04T22:34:40.056Z,53.14
2022-08-04T22:37:12.325Z,53.46
2022-08-04T22:39:56.128Z,54.02
2022-08-04T22:42:26.568Z,53.16
2022-08-04T22:44:52.998Z,52.51
2022-08-04T22:47:20.388Z,52.51
2022-08-04T22:49:56.493Z,52.49
2022-08-04T22:52:36.486Z,52.07
2022-08-04T22:55:18.156Z,52.44
2022-08-04T22:58:04.691Z,52.50
2022-08-04T23:00:31.251Z,52.25
2022-08-04T23:02:57.714Z,53.50
2022-08-04T23:05:35.600Z,53.21
2022-08-04T23:08:04.127Z,53.38
2022-08-04T23:10:32.275Z,53.59
2022-08-04T23:12:59.464Z,53.49
2022-08-04T23:15:33.854Z,53.44
2022-08-04T23:18:00.466Z,53.17
2022-08-04T23:20:32.557Z,52.94
2022-08-04T23:23:00.434Z,53.99
2022-08-04T23:26:07.541Z,54.51
2022-08-04T23:28:30.796Z,55.62
2022-08-04T23:30:57.383Z,56.17
2022-08-04T23:33:24.066Z,56.96
2022-08-04T23:36:10.476Z,57.23
2022-08-04T23:38:38.418Z,57.49
2022-08-04T23:41:06.769Z,57.40
2022-08-04T23:43:49.292Z,57.96
2022-08-04T23:46:19.812Z,58.48
2022-08-04T23:48:47.467Z,58.41
2022-08-04T23:51:15.698Z,58.49
2022-08-04T23:54:02.484Z,59.69
2022-08-04T23:56:31.909Z,60.02
2022-08-04T23:59:00.218Z,60.93
